sensor_id;sensor_type;location;lat;lon;timestamp;pressure;altitude;pressure_sealevel;temperature;humidity
77227;BME280;66234;47.642;19.144;2023-04-25T00:00:24;99244.59;;;12.07;78.00
77227;BME280;66234;47.642;19.144;2023-04-25T00:03:27;99243.47;;;12.03;77.81
77227;BME280;66234;47.642;19.144;2023-04-25T00:06:34;99239.47;;;12.05;77.72
77227;BME280;66234;47.642;19.144;2023-04-25T00:09:38;99237.22;;;12.14;77.07
77227;BME280;66234;47.642;19.144;2023-04-25T00:12:41;99241.91;;;12.07;76.97
77227;BME280;66234;47.642;19.144;2023-04-25T00:15:44;99242.72;;;12.07;76.44
77227;BME280;66234;47.642;19.144;2023-04-25T00:18:47;99240.88;;;12.08;76.45
77227;BME280;66234;47.642;19.144;2023-04-25T00:21:54;99246.38;;;12.01;76.52
77227;BME280;66234;47.642;19.144;2023-04-25T00:24:57;99246.84;;;11.98;76.94
77227;BME280;66234;47.642;19.144;2023-04-25T00:28:02;99238.56;;;12.00;75.82
77227;BME280;66234;47.642;19.144;2023-04-25T00:31:05;99242.09;;;12.00;75.99
77227;BME280;66234;47.642;19.144;2023-04-25T00:34:07;99252.44;;;11.97;74.84
77227;BME280;66234;47.642;19.144;2023-04-25T00:37:11;99242.81;;;11.96;74.51
77227;BME280;66234;47.642;19.144;2023-04-25T00:40:14;99244.91;;;11.94;74.38
77227;BME280;66234;47.642;19.144;2023-04-25T00:43:16;99238.13;;;11.91;74.44
77227;BME280;66234;47.642;19.144;2023-04-25T00:46:19;99234.31;;;11.87;74.30
77227;BME280;66234;47.642;19.144;2023-04-25T00:49:22;99232.78;;;11.91;73.88
77227;BME280;66234;47.642;19.144;2023-04-25T00:52:25;99233.59;;;11.92;72.98
77227;BME280;66234;47.642;19.144;2023-04-25T00:55:27;99226.38;;;11.92;72.96
77227;BME280;66234;47.642;19.144;2023-04-25T00:58:30;99228.59;;;11.95;72.24
77227;BME280;66234;47.642;19.144;2023-04-25T01:01:33;99231.13;;;12.02;72.35
77227;BME280;66234;47.642;19.144;2023-04-25T01:04:35;99217.63;;;11.97;72.58
77227;BME280;66234;47.642;19.144;2023-04-25T01:07:39;99241.84;;;12.02;71.86
77227;BME280;66234;47.642;19.144;2023-04-25T01:10:42;99230.06;;;12.03;72.03
77227;BME280;66234;47.642;19.144;2023-04-25T01:13:44;99200.09;;;12.06;71.95
77227;BME280;66234;47.642;19.144;2023-04-25T01:16:47;99201.66;;;12.02;72.00
77227;BME280;66234;47.642;19.144;2023-04-25T01:19:50;99203.84;;;12.05;72.77
77227;BME280;66234;47.642;19.144;2023-04-25T01:22:54;99210.56;;;12.07;72.73
77227;BME280;66234;47.642;19.144;2023-04-25T01:25:57;99200.44;;;12.09;72.24
77227;BME280;66234;47.642;19.144;2023-04-25T01:29:00;99202.19;;;12.04;72.78
77227;BME280;66234;47.642;19.144;2023-04-25T01:32:04;99198.97;;;12.02;72.65
77227;BME280;66234;47.642;19.144;2023-04-25T01:35:09;99197.03;;;11.97;72.44
77227;BME280;66234;47.642;19.144;2023-04-25T01:38:13;99189.22;;;11.96;72.26
77227;BME280;66234;47.642;19.144;2023-04-25T01:41:16;99202.28;;;11.92;72.69
77227;BME280;66234;47.642;19.144;2023-04-25T01:44:20;99177.50;;;11.85;73.37
77227;BME280;66234;47.642;19.144;2023-04-25T01:47:23;99183.03;;;11.79;74.03
77227;BME280;66234;47.642;19.144;2023-04-25T01:50:25;99174.56;;;11.70;74.10
77227;BME280;66234;47.642;19.144;2023-04-25T01:53:28;99187.13;;;11.70;73.94
77227;BME280;66234;47.642;19.144;2023-04-25T01:56:32;99175.38;;;11.71;73.98
77227;BME280;66234;47.642;19.144;2023-04-25T01:59:36;99183.16;;;11.72;73.90
77227;BME280;66234;47.642;19.144;2023-04-25T02:02:47;99182.00;;;11.68;73.39
77227;BME280;66234;47.642;19.144;2023-04-25T02:05:57;99191.44;;;11.71;72.93
77227;BME280;66234;47.642;19.144;2023-04-25T02:09:01;99190.13;;;11.73;71.80
77227;BME280;66234;47.642;19.144;2023-04-25T02:12:04;99180.00;;;11.75;72.07
77227;BME280;66234;47.642;19.144;2023-04-25T02:15:24;99178.16;;;11.76;71.36
77227;BME280;66234;47.642;19.144;2023-04-25T02:18:31;99191.94;;;11.84;70.12
77227;BME280;66234;47.642;19.144;2023-04-25T02:21:34;99196.66;;;11.77;70.05
77227;BME280;66234;47.642;19.144;2023-04-25T02:24:38;99188.88;;;11.76;70.50
77227;BME280;66234;47.642;19.144;2023-04-25T02:27:42;99188.03;;;11.75;70.45
77227;BME280;66234;47.642;19.144;2023-04-25T02:30:45;99195.84;;;11.77;70.20
77227;BME280;66234;47.642;19.144;2023-04-25T02:33:47;99193.63;;;11.74;70.41
77227;BME280;66234;47.642;19.144;2023-04-25T02:36:50;99192.34;;;11.76;70.22
77227;BME280;66234;47.642;19.144;2023-04-25T02:39:53;99193.56;;;11.85;69.08
77227;BME280;66234;47.642;19.144;2023-04-25T02:42:55;99182.44;;;11.77;69.04
77227;BME280;66234;47.642;19.144;2023-04-25T02:46:01;99184.97;;;11.83;67.71
77227;BME280;66234;47.642;19.144;2023-04-25T02:49:04;99182.31;;;11.83;67.41
77227;BME280;66234;47.642;19.144;2023-04-25T02:52:07;99186.13;;;11.87;65.75
77227;BME280;66234;47.642;19.144;2023-04-25T02:55:10;99193.00;;;11.83;64.99
77227;BME280;66234;47.642;19.144;2023-04-25T02:58:13;99188.06;;;11.92;64.30
77227;BME280;66234;47.642;19.144;2023-04-25T03:01:22;99199.50;;;11.87;64.70
77227;BME280;66234;47.642;19.144;2023-04-25T03:04:24;99193.00;;;11.83;64.95
77227;BME280;66234;47.642;19.144;2023-04-25T03:07:27;99193.97;;;11.77;64.65
77227;BME280;66234;47.642;19.144;2023-04-25T03:10:30;99191.31;;;11.77;65.45
77227;BME280;66234;47.642;19.144;2023-04-25T03:13:37;99196.25;;;11.85;65.68
77227;BME280;66234;47.642;19.144;2023-04-25T03:16:40;99192.09;;;11.78;65.53
77227;BME280;66234;47.642;19.144;2023-04-25T03:19:43;99206.78;;;11.75;66.43
77227;BME280;66234;47.642;19.144;2023-04-25T03:22:46;99198.66;;;11.70;66.47
77227;BME280;66234;47.642;19.144;2023-04-25T03:25:48;99203.66;;;11.67;67.20
77227;BME280;66234;47.642;19.144;2023-04-25T03:28:51;99202.28;;;11.64;67.04
77227;BME280;66234;47.642;19.144;2023-04-25T03:31:54;99199.97;;;11.68;66.98
77227;BME280;66234;47.642;19.144;2023-04-25T03:34:57;99208.34;;;11.59;67.39
77227;BME280;66234;47.642;19.144;2023-04-25T03:38:01;99201.69;;;11.62;67.27
77227;BME280;66234;47.642;19.144;2023-04-25T03:41:09;99199.00;;;11.62;66.94
77227;BME280;66234;47.642;19.144;2023-04-25T03:44:21;99201.91;;;11.60;67.18
77227;BME280;66234;47.642;19.144;2023-04-25T03:47:25;99204.59;;;11.60;67.14
77227;BME280;66234;47.642;19.144;2023-04-25T03:50:28;99201.13;;;11.60;66.85
77227;BME280;66234;47.642;19.144;2023-04-25T03:53:31;99206.59;;;11.65;67.11
77227;BME280;66234;47.642;19.144;2023-04-25T03:56:53;99205.66;;;11.59;65.77
77227;BME280;66234;47.642;19.144;2023-04-25T03:59:59;99211.16;;;11.53;66.23
77227;BME280;66234;47.642;19.144;2023-04-25T04:03:05;99201.75;;;11.50;66.10
77227;BME280;66234;47.642;19.144;2023-04-25T04:06:08;99210.56;;;11.51;66.05
77227;BME280;66234;47.642;19.144;2023-04-25T04:09:14;99207.22;;;11.44;66.46
77227;BME280;66234;47.642;19.144;2023-04-25T04:12:19;99215.13;;;11.50;65.78
77227;BME280;66234;47.642;19.144;2023-04-25T04:15:21;99211.25;;;11.58;65.37
77227;BME280;66234;47.642;19.144;2023-04-25T04:18:24;99218.69;;;11.56;66.04
77227;BME280;66234;47.642;19.144;2023-04-25T04:21:28;99215.53;;;11.59;65.89
77227;BME280;66234;47.642;19.144;2023-04-25T04:24:31;99214.06;;;11.51;66.62
77227;BME280;66234;47.642;19.144;2023-04-25T04:27:37;99215.72;;;11.41;67.19
77227;BME280;66234;47.642;19.144;2023-04-25T04:30:56;99215.91;;;11.51;67.32
77227;BME280;66234;47.642;19.144;2023-04-25T04:34:01;99218.16;;;11.42;67.91
77227;BME280;66234;47.642;19.144;2023-04-25T04:37:05;99224.41;;;11.48;67.76
77227;BME280;66234;47.642;19.144;2023-04-25T04:40:09;99211.38;;;11.51;68.42
77227;BME280;66234;47.642;19.144;2023-04-25T04:43:23;99215.50;;;11.42;69.04
77227;BME280;66234;47.642;19.144;2023-04-25T04:47:01;99218.53;;;11.34;70.37
77227;BME280;66234;47.642;19.144;2023-04-25T04:50:14;99223.16;;;11.39;69.85
77227;BME280;66234;47.642;19.144;2023-04-25T04:53:38;99222.28;;;11.33;70.38
77227;BME280;66234;47.642;19.144;2023-04-25T04:57:03;99219.47;;;11.40;69.46
77227;BME280;66234;47.642;19.144;2023-04-25T05:00:29;99219.88;;;11.48;70.08
77227;BME280;66234;47.642;19.144;2023-04-25T05:03:58;99227.94;;;11.37;70.52
77227;BME280;66234;47.642;19.144;2023-04-25T05:07:29;99228.69;;;11.21;71.41
77227;BME280;66234;47.642;19.144;2023-04-25T05:10:39;99229.59;;;11.26;70.77
77227;BME280;66234;47.642;19.144;2023-04-25T05:13:53;99226.59;;;11.11;71.65
77227;BME280;66234;47.642;19.144;2023-04-25T05:17:14;99230.66;;;11.14;72.23
77227;BME280;66234;47.642;19.144;2023-04-25T05:20:36;99231.97;;;11.11;73.00
77227;BME280;66234;47.642;19.144;2023-04-25T05:23:54;99233.69;;;11.29;72.08
77227;BME280;66234;47.642;19.144;2023-04-25T05:27:18;99236.13;;;11.19;72.62
77227;BME280;66234;47.642;19.144;2023-04-25T05:30:42;99234.72;;;11.28;74.38
77227;BME280;66234;47.642;19.144;2023-04-25T05:33:49;99238.34;;;11.22;72.65
77227;BME280;66234;47.642;19.144;2023-04-25T05:36:53;99237.22;;;10.95;72.94
77227;BME280;66234;47.642;19.144;2023-04-25T05:39:56;99235.59;;;10.82;72.70
77227;BME280;66234;47.642;19.144;2023-04-25T05:43:20;99234.31;;;10.85;72.47
77227;BME280;66234;47.642;19.144;2023-04-25T05:46:31;99223.63;;;10.73;72.40
77227;BME280;66234;47.642;19.144;2023-04-25T05:49:58;99229.69;;;10.69;72.65
77227;BME280;66234;47.642;19.144;2023-04-25T05:53:17;99234.56;;;10.72;72.68
77227;BME280;66234;47.642;19.144;2023-04-25T05:56:27;99233.38;;;10.79;73.77
77227;BME280;66234;47.642;19.144;2023-04-25T05:59:31;99229.22;;;10.72;72.25
77227;BME280;66234;47.642;19.144;2023-04-25T06:02:34;99237.56;;;10.64;73.68
77227;BME280;66234;47.642;19.144;2023-04-25T06:05:38;99242.31;;;10.62;74.97
77227;BME280;66234;47.642;19.144;2023-04-25T06:08:41;99235.22;;;10.56;74.87
77227;BME280;66234;47.642;19.144;2023-04-25T06:11:46;99234.16;;;10.34;74.88
77227;BME280;66234;47.642;19.144;2023-04-25T06:14:48;99242.06;;;10.40;76.79
77227;BME280;66234;47.642;19.144;2023-04-25T06:17:51;99229.38;;;10.24;77.50
77227;BME280;66234;47.642;19.144;2023-04-25T06:20:54;99234.38;;;10.21;77.98
77227;BME280;66234;47.642;19.144;2023-04-25T06:23:58;99245.41;;;10.24;78.25
77227;BME280;66234;47.642;19.144;2023-04-25T06:27:01;99232.50;;;10.21;78.17
77227;BME280;66234;47.642;19.144;2023-04-25T06:30:04;99242.25;;;10.16;78.57
77227;BME280;66234;47.642;19.144;2023-04-25T06:33:09;99245.75;;;10.16;80.39
77227;BME280;66234;47.642;19.144;2023-04-25T06:36:20;99249.13;;;10.12;80.36
77227;BME280;66234;47.642;19.144;2023-04-25T06:40:08;99247.13;;;10.19;81.41
77227;BME280;66234;47.642;19.144;2023-04-25T06:43:11;99252.84;;;10.22;82.14
77227;BME280;66234;47.642;19.144;2023-04-25T06:46:28;99252.03;;;10.22;81.24
77227;BME280;66234;47.642;19.144;2023-04-25T06:49:37;99255.28;;;10.24;81.51
77227;BME280;66234;47.642;19.144;2023-04-25T06:52:40;99249.38;;;10.33;81.55
77227;BME280;66234;47.642;19.144;2023-04-25T06:55:43;99251.94;;;10.28;81.99
77227;BME280;66234;47.642;19.144;2023-04-25T06:58:58;99258.00;;;10.47;81.02
77227;BME280;66234;47.642;19.144;2023-04-25T07:02:08;99251.09;;;10.28;82.07
77227;BME280;66234;47.642;19.144;2023-04-25T07:05:11;99258.34;;;10.39;83.09
77227;BME280;66234;47.642;19.144;2023-04-25T07:08:14;99252.56;;;10.65;81.34
77227;BME280;66234;47.642;19.144;2023-04-25T07:11:17;99249.78;;;10.71;82.64
77227;BME280;66234;47.642;19.144;2023-04-25T07:14:20;99253.63;;;10.87;80.84
77227;BME280;66234;47.642;19.144;2023-04-25T07:17:23;99251.28;;;11.02;81.11
77227;BME280;66234;47.642;19.144;2023-04-25T07:20:28;99246.03;;;11.07;78.45
77227;BME280;66234;47.642;19.144;2023-04-25T07:23:31;99246.25;;;11.28;80.03
77227;BME280;66234;47.642;19.144;2023-04-25T07:26:37;99253.09;;;11.36;78.59
77227;BME280;66234;47.642;19.144;2023-04-25T07:30:06;99256.41;;;11.54;77.52
77227;BME280;66234;47.642;19.144;2023-04-25T07:33:10;99246.06;;;11.58;79.23
77227;BME280;66234;47.642;19.144;2023-04-25T07:36:13;99247.44;;;11.60;77.86
77227;BME280;66234;47.642;19.144;2023-04-25T07:39:17;99248.47;;;11.71;76.59
77227;BME280;66234;47.642;19.144;2023-04-25T07:42:20;99244.69;;;11.84;77.69
77227;BME280;66234;47.642;19.144;2023-04-25T07:45:23;99245.38;;;11.91;76.32
77227;BME280;66234;47.642;19.144;2023-04-25T07:48:27;99252.72;;;11.84;76.66
77227;BME280;66234;47.642;19.144;2023-04-25T07:51:32;99246.13;;;12.03;76.02
77227;BME280;66234;47.642;19.144;2023-04-25T07:54:40;99257.09;;;12.01;73.82
77227;BME280;66234;47.642;19.144;2023-04-25T07:57:51;99254.31;;;11.96;73.23
77227;BME280;66234;47.642;19.144;2023-04-25T08:00:55;99270.56;;;12.34;74.23
77227;BME280;66234;47.642;19.144;2023-04-25T08:04:09;99248.53;;;12.16;72.73
77227;BME280;66234;47.642;19.144;2023-04-25T08:07:26;99244.97;;;12.43;72.39
77227;BME280;66234;47.642;19.144;2023-04-25T08:10:31;99248.22;;;12.62;72.07
77227;BME280;66234;47.642;19.144;2023-04-25T08:13:34;99249.91;;;13.01;71.70
77227;BME280;66234;47.642;19.144;2023-04-25T08:16:38;99253.75;;;12.88;70.42
77227;BME280;66234;47.642;19.144;2023-04-25T08:19:42;99261.78;;;12.72;70.40
77227;BME280;66234;47.642;19.144;2023-04-25T08:22:53;99260.00;;;12.77;70.79
77227;BME280;66234;47.642;19.144;2023-04-25T08:26:04;99254.94;;;12.81;70.72
77227;BME280;66234;47.642;19.144;2023-04-25T08:29:11;99264.34;;;13.33;67.62
77227;BME280;66234;47.642;19.144;2023-04-25T08:32:16;99260.56;;;13.34;67.94
77227;BME280;66234;47.642;19.144;2023-04-25T08:35:31;99276.38;;;13.52;68.14
77227;BME280;66234;47.642;19.144;2023-04-25T08:38:35;99272.06;;;13.73;67.29
77227;BME280;66234;47.642;19.144;2023-04-25T08:41:41;99264.25;;;13.71;66.29
77227;BME280;66234;47.642;19.144;2023-04-25T08:44:45;99266.78;;;14.26;65.88
77227;BME280;66234;47.642;19.144;2023-04-25T08:47:51;99271.50;;;14.19;64.30
77227;BME280;66234;47.642;19.144;2023-04-25T08:50:56;99266.13;;;14.19;64.03
77227;BME280;66234;47.642;19.144;2023-04-25T08:54:09;99275.72;;;14.10;63.76
77227;BME280;66234;47.642;19.144;2023-04-25T08:57:33;99288.69;;;13.91;64.62
77227;BME280;66234;47.642;19.144;2023-04-25T09:00:37;99281.75;;;13.74;65.14
77227;BME280;66234;47.642;19.144;2023-04-25T09:03:40;99283.38;;;13.96;64.56
77227;BME280;66234;47.642;19.144;2023-04-25T09:06:44;99272.69;;;14.28;62.86
77227;BME280;66234;47.642;19.144;2023-04-25T09:09:48;99273.28;;;14.08;64.55
77227;BME280;66234;47.642;19.144;2023-04-25T09:13:09;99282.91;;;14.57;61.57
77227;BME280;66234;47.642;19.144;2023-04-25T09:20:13;99270.28;;;14.58;61.63
77227;BME280;66234;47.642;19.144;2023-04-25T09:23:18;99274.31;;;14.92;60.50
77227;BME280;66234;47.642;19.144;2023-04-25T09:26:22;99280.13;;;14.74;59.74
77227;BME280;66234;47.642;19.144;2023-04-25T09:29:36;99280.41;;;14.77;61.01
77227;BME280;66234;47.642;19.144;2023-04-25T09:32:42;99280.44;;;14.82;59.63
77227;BME280;66234;47.642;19.144;2023-04-25T09:35:46;99279.22;;;15.00;58.70
77227;BME280;66234;47.642;19.144;2023-04-25T09:38:59;99278.25;;;15.16;57.96
77227;BME280;66234;47.642;19.144;2023-04-25T09:42:05;99282.09;;;15.25;56.39
77227;BME280;66234;47.642;19.144;2023-04-25T09:45:12;99285.56;;;15.26;59.12
77227;BME280;66234;47.642;19.144;2023-04-25T09:48:18;99271.81;;;15.17;57.14
77227;BME280;66234;47.642;19.144;2023-04-25T09:51:25;99288.03;;;14.91;57.81
77227;BME280;66234;47.642;19.144;2023-04-25T09:54:32;99273.88;;;15.52;56.99
77227;BME280;66234;47.642;19.144;2023-04-25T09:57:42;99285.88;;;14.88;55.29
77227;BME280;66234;47.642;19.144;2023-04-25T10:00:47;99272.97;;;15.36;54.77
77227;BME280;66234;47.642;19.144;2023-04-25T10:04:03;99265.94;;;15.25;54.67
77227;BME280;66234;47.642;19.144;2023-04-25T10:07:41;99273.09;;;14.73;54.32
77227;BME280;66234;47.642;19.144;2023-04-25T10:10:49;99271.81;;;15.22;55.24
77227;BME280;66234;47.642;19.144;2023-04-25T10:13:53;99277.06;;;15.02;55.65
77227;BME280;66234;47.642;19.144;2023-04-25T10:16:57;99288.50;;;15.19;53.68
77227;BME280;66234;47.642;19.144;2023-04-25T10:20:02;99277.81;;;15.34;54.74
77227;BME280;66234;47.642;19.144;2023-04-25T10:23:15;99274.78;;;15.72;53.62
77227;BME280;66234;47.642;19.144;2023-04-25T10:26:19;99273.03;;;15.41;52.96
77227;BME280;66234;47.642;19.144;2023-04-25T10:29:26;99277.53;;;14.89;55.71
77227;BME280;66234;47.642;19.144;2023-04-25T10:32:30;99277.00;;;15.34;56.22
77227;BME280;66234;47.642;19.144;2023-04-25T10:35:34;99272.84;;;15.11;53.69
77227;BME280;66234;47.642;19.144;2023-04-25T10:38:37;99278.69;;;14.66;55.29
77227;BME280;66234;47.642;19.144;2023-04-25T10:41:48;99263.72;;;15.22;52.63
77227;BME280;66234;47.642;19.144;2023-04-25T10:45:02;99263.19;;;15.20;52.04
77227;BME280;66234;47.642;19.144;2023-04-25T10:48:30;99263.28;;;15.35;54.20
77227;BME280;66234;47.642;19.144;2023-04-25T10:51:34;99276.09;;;15.18;54.47
77227;BME280;66234;47.642;19.144;2023-04-25T10:54:57;99276.94;;;14.82;54.77
77227;BME280;66234;47.642;19.144;2023-04-25T10:58:00;99288.41;;;15.04;54.98
77227;BME280;66234;47.642;19.144;2023-04-25T11:01:03;99285.19;;;15.07;53.54
77227;BME280;66234;47.642;19.144;2023-04-25T11:04:26;99297.94;;;15.63;51.65
77227;BME280;66234;47.642;19.144;2023-04-25T11:07:56;99293.91;;;15.24;52.00
77227;BME280;66234;47.642;19.144;2023-04-25T11:11:08;99317.44;;;15.02;52.87
77227;BME280;66234;47.642;19.144;2023-04-25T11:14:11;99298.13;;;15.05;53.08
77227;BME280;66234;47.642;19.144;2023-04-25T11:17:14;99304.06;;;15.49;50.87
77227;BME280;66234;47.642;19.144;2023-04-25T11:20:17;99302.53;;;15.68;51.20
77227;BME280;66234;47.642;19.144;2023-04-25T11:23:20;99309.72;;;15.11;50.07
77227;BME280;66234;47.642;19.144;2023-04-25T11:26:24;99313.31;;;15.68;50.20
77227;BME280;66234;47.642;19.144;2023-04-25T11:29:31;99312.38;;;15.99;48.88
77227;BME280;66234;47.642;19.144;2023-04-25T11:32:40;99318.03;;;15.97;49.59
77227;BME280;66234;47.642;19.144;2023-04-25T11:35:43;99313.72;;;16.01;48.41
77227;BME280;66234;47.642;19.144;2023-04-25T11:38:47;99312.75;;;15.61;47.82
77227;BME280;66234;47.642;19.144;2023-04-25T11:41:49;99314.03;;;15.53;48.02
77227;BME280;66234;47.642;19.144;2023-04-25T11:44:52;99319.09;;;15.91;47.56
77227;BME280;66234;47.642;19.144;2023-04-25T11:47:55;99311.56;;;16.03;46.74
77227;BME280;66234;47.642;19.144;2023-04-25T11:51:00;99322.84;;;15.90;48.27
77227;BME280;66234;47.642;19.144;2023-04-25T11:54:02;99326.44;;;16.11;48.75
77227;BME280;66234;47.642;19.144;2023-04-25T11:57:05;99323.72;;;16.11;47.88
77227;BME280;66234;47.642;19.144;2023-04-25T12:00:13;99328.84;;;16.07;46.70
77227;BME280;66234;47.642;19.144;2023-04-25T12:03:20;99338.75;;;15.92;48.55
77227;BME280;66234;47.642;19.144;2023-04-25T12:06:29;99330.13;;;15.95;48.55
77227;BME280;66234;47.642;19.144;2023-04-25T12:09:33;99336.19;;;15.60;47.77
77227;BME280;66234;47.642;19.144;2023-04-25T12:12:38;99339.81;;;15.86;48.43
77227;BME280;66234;47.642;19.144;2023-04-25T12:15:43;99343.25;;;15.71;47.92
77227;BME280;66234;47.642;19.144;2023-04-25T12:18:46;99347.91;;;15.86;45.70
77227;BME280;66234;47.642;19.144;2023-04-25T12:21:49;99336.16;;;16.17;45.08
77227;BME280;66234;47.642;19.144;2023-04-25T12:25:00;99352.34;;;16.17;43.00
77227;BME280;66234;47.642;19.144;2023-04-25T12:31:37;99340.81;;;15.70;45.79
77227;BME280;66234;47.642;19.144;2023-04-25T12:34:42;99333.06;;;16.85;45.64
77227;BME280;66234;47.642;19.144;2023-04-25T12:37:44;99339.81;;;16.83;45.95
77227;BME280;66234;47.642;19.144;2023-04-25T12:40:49;99330.91;;;17.07;45.07
77227;BME280;66234;47.642;19.144;2023-04-25T12:43:52;99326.56;;;17.26;45.43
77227;BME280;66234;47.642;19.144;2023-04-25T12:46:55;99333.88;;;16.71;45.41
77227;BME280;66234;47.642;19.144;2023-04-25T12:49:58;99323.97;;;17.90;43.25
77227;BME280;66234;47.642;19.144;2023-04-25T12:53:00;99299.56;;;19.21;38.70
77227;BME280;66234;47.642;19.144;2023-04-25T12:56:03;99307.53;;;19.65;39.31
77227;BME280;66234;47.642;19.144;2023-04-25T12:59:06;99308.91;;;19.62;38.83
77227;BME280;66234;47.642;19.144;2023-04-25T13:02:09;99314.22;;;19.72;38.15
77227;BME280;66234;47.642;19.144;2023-04-25T13:05:12;99308.53;;;19.16;37.30
77227;BME280;66234;47.642;19.144;2023-04-25T13:08:15;99309.28;;;19.98;35.43
77227;BME280;66234;47.642;19.144;2023-04-25T13:11:18;99307.34;;;19.80;33.87
77227;BME280;66234;47.642;19.144;2023-04-25T13:14:21;99307.59;;;19.83;33.89
77227;BME280;66234;47.642;19.144;2023-04-25T13:17:23;99317.50;;;19.45;34.86
77227;BME280;66234;47.642;19.144;2023-04-25T13:20:28;99304.25;;;19.68;33.91
77227;BME280;66234;47.642;19.144;2023-04-25T13:23:31;99302.22;;;18.97;34.58
77227;BME280;66234;47.642;19.144;2023-04-25T13:26:33;99287.22;;;20.28;33.78
77227;BME280;66234;47.642;19.144;2023-04-25T13:29:36;99284.78;;;20.45;33.04
77227;BME280;66234;47.642;19.144;2023-04-25T13:32:40;99281.63;;;19.53;34.39
77227;BME280;66234;47.642;19.144;2023-04-25T13:35:44;99275.56;;;20.59;32.49
77227;BME280;66234;47.642;19.144;2023-04-25T13:38:49;99274.84;;;21.04;33.06
77227;BME280;66234;47.642;19.144;2023-04-25T13:41:52;99279.09;;;21.10;32.28
77227;BME280;66234;47.642;19.144;2023-04-25T13:44:55;99276.22;;;21.61;31.08
77227;BME280;66234;47.642;19.144;2023-04-25T13:47:57;99297.50;;;22.49;31.53
77227;BME280;66234;47.642;19.144;2023-04-25T13:51:00;99280.38;;;20.81;32.04
77227;BME280;66234;47.642;19.144;2023-04-25T13:54:03;99275.69;;;20.54;32.47
77227;BME280;66234;47.642;19.144;2023-04-25T13:57:05;99284.72;;;21.87;30.78
77227;BME280;66234;47.642;19.144;2023-04-25T14:00:09;99269.25;;;22.45;29.66
77227;BME280;66234;47.642;19.144;2023-04-25T14:03:13;99273.47;;;22.15;29.74
77227;BME280;66234;47.642;19.144;2023-04-25T14:06:15;99261.88;;;22.59;29.29
77227;BME280;66234;47.642;19.144;2023-04-25T14:09:26;99266.97;;;21.62;29.58
77227;BME280;66234;47.642;19.144;2023-04-25T14:12:30;99270.50;;;21.90;28.56
77227;BME280;66234;47.642;19.144;2023-04-25T14:15:33;99265.53;;;22.54;28.00
77227;BME280;66234;47.642;19.144;2023-04-25T14:18:36;99263.59;;;23.60;27.66
77227;BME280;66234;47.642;19.144;2023-04-25T14:21:39;99255.50;;;23.38;27.23
77227;BME280;66234;47.642;19.144;2023-04-25T14:24:43;99266.53;;;24.28;25.45
77227;BME280;66234;47.642;19.144;2023-04-25T14:27:47;99262.00;;;24.50;27.18
77227;BME280;66234;47.642;19.144;2023-04-25T14:30:52;99268.75;;;23.70;27.69
77227;BME280;66234;47.642;19.144;2023-04-25T14:33:55;99278.19;;;23.25;26.90
77227;BME280;66234;47.642;19.144;2023-04-25T14:37:01;99274.69;;;23.03;26.82
77227;BME280;66234;47.642;19.144;2023-04-25T14:40:04;99269.31;;;22.31;27.97
77227;BME280;66234;47.642;19.144;2023-04-25T14:43:07;99281.19;;;22.71;26.82
77227;BME280;66234;47.642;19.144;2023-04-25T14:46:10;99274.09;;;22.48;26.75
77227;BME280;66234;47.642;19.144;2023-04-25T14:49:13;99269.22;;;23.25;26.44
77227;BME280;66234;47.642;19.144;2023-04-25T14:52:16;99268.91;;;21.89;26.97
77227;BME280;66234;47.642;19.144;2023-04-25T14:55:19;99273.00;;;22.71;26.10
77227;BME280;66234;47.642;19.144;2023-04-25T14:58:22;99252.66;;;23.21;25.21
77227;BME280;66234;47.642;19.144;2023-04-25T15:01:25;99270.31;;;21.86;27.02
77227;BME280;66234;47.642;19.144;2023-04-25T15:04:28;99278.47;;;19.89;29.19
77227;BME280;66234;47.642;19.144;2023-04-25T15:07:32;99287.69;;;18.50;32.34
77227;BME280;66234;47.642;19.144;2023-04-25T15:10:36;99288.09;;;17.69;33.95
77227;BME280;66234;47.642;19.144;2023-04-25T15:13:39;99291.56;;;17.85;34.12
77227;BME280;66234;47.642;19.144;2023-04-25T15:16:42;99274.66;;;19.47;30.90
77227;BME280;66234;47.642;19.144;2023-04-25T15:19:45;99280.81;;;18.96;31.69
77227;BME280;66234;47.642;19.144;2023-04-25T15:22:48;99278.75;;;18.83;31.98
77227;BME280;66234;47.642;19.144;2023-04-25T15:25:51;99286.00;;;18.92;31.22
77227;BME280;66234;47.642;19.144;2023-04-25T15:28:55;99279.53;;;18.06;32.89
77227;BME280;66234;47.642;19.144;2023-04-25T15:31:58;99273.88;;;17.34;34.04
77227;BME280;66234;47.642;19.144;2023-04-25T15:35:03;99278.78;;;16.92;34.21
77227;BME280;66234;47.642;19.144;2023-04-25T15:38:07;99277.44;;;16.74;34.87
77227;BME280;66234;47.642;19.144;2023-04-25T15:41:11;99283.19;;;18.30;32.80
77227;BME280;66234;47.642;19.144;2023-04-25T15:44:14;99276.97;;;19.02;31.35
77227;BME280;66234;47.642;19.144;2023-04-25T15:47:16;99276.06;;;19.40;31.18
77227;BME280;66234;47.642;19.144;2023-04-25T15:50:20;99275.91;;;17.82;33.73
77227;BME280;66234;47.642;19.144;2023-04-25T15:53:22;99276.84;;;17.17;34.49
77227;BME280;66234;47.642;19.144;2023-04-25T15:56:25;99278.19;;;18.52;32.32
77227;BME280;66234;47.642;19.144;2023-04-25T15:59:28;99267.44;;;18.76;33.12
77227;BME280;66234;47.642;19.144;2023-04-25T16:02:30;99269.03;;;19.39;31.88
77227;BME280;66234;47.642;19.144;2023-04-25T16:05:33;99264.53;;;19.53;31.86
77227;BME280;66234;47.642;19.144;2023-04-25T16:08:36;99278.31;;;19.99;31.04
77227;BME280;66234;47.642;19.144;2023-04-25T16:11:38;99284.19;;;19.87;31.25
77227;BME280;66234;47.642;19.144;2023-04-25T16:14:41;99279.59;;;19.40;32.36
77227;BME280;66234;47.642;19.144;2023-04-25T16:17:43;99283.81;;;18.94;33.37
77227;BME280;66234;47.642;19.144;2023-04-25T16:20:46;99290.78;;;17.74;35.64